createdAt,value
2018-06-05T00:00:50.613Z,20.43
2018-06-05T00:03:19.273Z,21.50
2018-06-05T00:05:48.029Z,17.97
2018-06-05T00:08:16.801Z,19.23
2018-06-05T00:10:45.618Z,19.80
2018-06-05T00:13:14.371Z,20.47
2018-06-05T00:15:43.180Z,21.60
2018-06-05T00:18:11.721Z,20.90
2018-06-05T00:20:40.334Z,17.33
2018-06-05T00:23:09.105Z,24.07
2018-06-05T00:25:37.901Z,20.17
2018-06-05T00:28:06.667Z,24.77
2018-06-05T00:30:35.416Z,21.67
2018-06-05T00:33:04.161Z,21.93
2018-06-05T00:35:32.915Z,22.07
2018-06-05T00:38:01.759Z,25.10
2018-06-05T00:40:30.527Z,23.23
2018-06-05T00:42:59.291Z,22.73
2018-06-05T00:45:28.067Z,23.93
2018-06-05T00:47:56.816Z,24.23
2018-06-05T00:50:25.585Z,23.13
2018-06-05T00:52:54.355Z,21.50
2018-06-05T00:55:22.951Z,21.20
2018-06-05T00:57:51.675Z,22.70
2018-06-05T01:00:20.417Z,21.57
2018-06-05T01:02:49.161Z,19.93
2018-06-05T01:05:17.957Z,22.30
2018-06-05T01:07:46.708Z,23.87
2018-06-05T01:10:15.469Z,22.83
2018-06-05T01:12:44.060Z,21.23
2018-06-05T01:15:12.692Z,21.63
2018-06-05T01:17:41.499Z,25.90
2018-06-05T01:20:10.241Z,21.87
2018-06-05T01:22:39.128Z,21.90
2018-06-05T01:25:07.891Z,22.80
2018-06-05T01:27:36.475Z,24.03
2018-06-05T01:30:05.176Z,23.50
2018-06-05T01:32:33.940Z,23.90
2018-06-05T01:35:02.702Z,23.53
2018-06-05T01:37:31.629Z,23.53
2018-06-05T01:40:00.231Z,24.73
2018-06-05T01:42:28.865Z,21.73
2018-06-05T01:44:57.644Z,24.80
2018-06-05T01:47:26.419Z,24.50
2018-06-05T01:49:55.199Z,22.73
2018-06-05T01:52:23.929Z,21.47
2018-06-05T01:54:52.707Z,25.07
2018-06-05T01:57:21.482Z,21.47
2018-06-05T01:59:50.221Z,22.27
2018-06-05T02:02:18.812Z,21.83
2018-06-05T02:04:47.487Z,23.50
2018-06-05T02:07:16.276Z,22.73
2018-06-05T02:09:45.053Z,21.83
2018-06-05T02:12:13.825Z,23.37
2018-06-05T02:14:42.536Z,20.77
2018-06-05T02:17:11.144Z,27.10
2018-06-05T02:19:39.596Z,23.17
2018-06-05T02:22:08.231Z,22.23
2018-06-05T02:24:37.017Z,22.77
2018-06-05T02:27:05.854Z,21.27
2018-06-05T02:29:34.581Z,22.23
2018-06-05T02:32:03.355Z,21.87
2018-06-05T02:34:32.089Z,21.43
2018-06-05T02:37:00.840Z,24.37
2018-06-05T02:39:29.663Z,23.80
2018-06-05T02:41:58.410Z,23.23
2018-06-05T02:44:27.157Z,22.40
2018-06-05T02:46:55.930Z,23.07
2018-06-05T02:49:24.681Z,21.40
2018-06-05T02:51:53.440Z,24.90
2018-06-05T02:54:22.176Z,23.13
2018-06-05T02:56:50.935Z,20.90
2018-06-05T02:59:19.536Z,21.67
2018-06-05T03:01:47.992Z,22.27
2018-06-05T03:04:16.641Z,20.70
2018-06-05T03:06:45.429Z,18.70
2018-06-05T03:09:14.250Z,24.07
2018-06-05T03:11:43.377Z,22.10
2018-06-05T03:14:12.100Z,22.60
2018-06-05T03:16:40.872Z,19.20
2018-06-05T03:19:09.671Z,22.23
2018-06-05T03:21:38.430Z,20.60
2018-06-05T03:24:07.190Z,19.03
2018-06-05T03:26:35.794Z,19.80
2018-06-05T03:29:04.273Z,19.90
2018-06-05T03:31:32.900Z,20.37
2018-06-05T03:34:01.743Z,21.53
2018-06-05T03:36:30.507Z,19.10
2018-06-05T03:38:59.260Z,22.17
2018-06-05T03:41:28.983Z,20.33
2018-06-05T03:43:57.781Z,18.17
2018-06-05T03:46:26.533Z,20.53
2018-06-05T03:48:55.281Z,20.83
2018-06-05T03:51:24.031Z,18.33
2018-06-05T03:53:52.817Z,18.43
2018-06-05T03:56:21.543Z,21.13
2018-06-05T03:58:50.300Z,20.33
2018-06-05T04:01:19.080Z,21.23
2018-06-05T04:03:47.845Z,18.93
2018-06-05T04:06:16.612Z,23.67
2018-06-05T04:08:45.161Z,28.77
2018-06-05T04:11:14.610Z,21.20
2018-06-05T04:13:43.347Z,22.57
2018-06-05T04:16:12.159Z,22.53
2018-06-05T04:18:40.864Z,23.63
2018-06-05T04:21:09.471Z,20.40
2018-06-05T04:23:38.106Z,21.23
2018-06-05T04:26:06.876Z,19.37
2018-06-05T04:28:35.622Z,22.30
2018-06-05T04:31:04.361Z,23.17
2018-06-05T04:33:33.097Z,20.23
2018-06-05T04:36:01.740Z,19.77
2018-06-05T04:38:30.464Z,17.60
2018-06-05T04:40:59.378Z,20.87
2018-06-05T04:43:28.128Z,21.60
2018-06-05T04:45:56.973Z,22.27
2018-06-05T04:48:25.816Z,25.43
2018-06-05T04:50:54.562Z,20.70
2018-06-05T04:53:23.351Z,23.70
2018-06-05T04:55:53.009Z,22.07
2018-06-05T04:58:21.638Z,21.37
2018-06-05T05:00:50.395Z,25.43
2018-06-05T05:03:19.254Z,20.23
2018-06-05T05:05:47.989Z,20.50
2018-06-05T05:08:16.720Z,21.50
2018-06-05T05:10:45.548Z,22.67
2018-06-05T05:13:14.424Z,22.23
2018-06-05T05:15:43.077Z,24.17
2018-06-05T05:18:11.809Z,23.67
2018-06-05T05:20:40.430Z,19.07
2018-06-05T05:23:09.193Z,20.53
2018-06-05T05:25:38.039Z,18.53
2018-06-05T05:28:06.798Z,20.50
2018-06-05T05:30:35.560Z,19.73
2018-06-05T05:33:04.355Z,19.97
2018-06-05T05:35:33.133Z,18.97
2018-06-05T05:38:01.894Z,21.40
2018-06-05T05:40:30.459Z,22.83
2018-06-05T05:42:59.112Z,25.10
2018-06-05T05:45:27.894Z,20.63
2018-06-05T05:47:56.834Z,21.30
2018-06-05T05:50:25.602Z,22.43
2018-06-05T05:52:54.364Z,22.43
2018-06-05T05:55:23.190Z,22.47
2018-06-05T05:57:51.951Z,23.10
2018-06-05T06:00:20.736Z,22.10
2018-06-05T06:02:49.507Z,21.83
2018-06-05T06:05:18.383Z,21.33
2018-06-05T06:07:46.949Z,25.50
2018-06-05T06:10:15.602Z,24.03
2018-06-05T06:12:44.459Z,26.13
2018-06-05T06:15:13.233Z,19.20
2018-06-05T06:17:42.136Z,19.87
2018-06-05T06:20:10.908Z,24.00
2018-06-05T06:22:39.619Z,23.40
2018-06-05T06:25:08.260Z,23.90
2018-06-05T06:27:37.092Z,21.37
2018-06-05T06:30:05.864Z,17.40
2018-06-05T06:32:34.611Z,20.03
2018-06-05T06:35:03.393Z,26.67
2018-06-05T06:37:32.142Z,21.40
2018-06-05T06:40:00.931Z,22.70
2018-06-05T06:42:29.736Z,18.67
2018-06-05T06:44:58.515Z,20.87
2018-06-05T06:47:27.269Z,18.93
2018-06-05T06:49:56.079Z,22.03
2018-06-05T06:52:24.823Z,18.67
2018-06-05T06:54:53.586Z,18.70
2018-06-05T06:57:22.382Z,24.43
2018-06-05T06:59:51.309Z,25.63
2018-06-05T07:02:20.072Z,20.03
2018-06-05T07:04:48.852Z,35.60
2018-06-05T07:07:17.596Z,29.97
2018-06-05T07:09:46.308Z,31.77
2018-06-05T07:12:14.963Z,30.20
2018-06-05T07:14:43.542Z,28.93
2018-06-05T07:17:12.267Z,33.10
2018-06-05T07:19:41.051Z,47.23
2018-06-05T07:22:09.924Z,26.73
2018-06-05T07:24:38.719Z,23.07
2018-06-05T07:27:07.609Z,34.23
2018-06-05T07:29:36.381Z,24.50
2018-06-05T07:32:05.194Z,53.10
2018-06-05T07:34:33.882Z,29.73
2018-06-05T07:37:02.683Z,22.23
2018-06-05T07:39:31.441Z,19.77
2018-06-05T07:42:00.048Z,29.77
2018-06-05T07:44:28.675Z,24.30
2018-06-05T07:46:57.453Z,22.80
2018-06-05T07:49:26.248Z,28.07
2018-06-05T07:51:54.997Z,20.70
2018-06-05T07:54:23.764Z,26.10
2018-06-05T07:56:52.394Z,21.40
2018-06-05T07:59:21.161Z,26.70
2018-06-05T08:01:49.904Z,25.10
2018-06-05T08:04:18.743Z,28.23
2018-06-05T08:06:47.373Z,25.17
2018-06-05T08:09:16.002Z,22.13
2018-06-05T08:11:44.892Z,22.83
2018-06-05T08:14:13.688Z,22.33
2018-06-05T08:16:42.468Z,28.27
2018-06-05T08:19:11.269Z,26.13
2018-06-05T08:21:40.110Z,21.27
2018-06-05T08:24:08.903Z,23.67
2018-06-05T08:26:48.767Z,25.37
2018-06-05T08:29:18.427Z,23.67
2018-06-05T08:31:47.294Z,24.93
2018-06-05T08:34:16.087Z,26.17
2018-06-05T08:36:44.880Z,27.83
2018-06-05T08:39:13.642Z,25.57
2018-06-05T08:41:42.428Z,28.57
2018-06-05T08:44:11.249Z,26.43
2018-06-05T08:46:40.053Z,20.97
2018-06-05T08:49:08.875Z,21.77
2018-06-05T08:51:37.617Z,28.37
2018-06-05T08:54:06.389Z,20.87
2018-06-05T08:56:35.149Z,23.57
2018-06-05T08:59:03.933Z,27.00
2018-06-05T09:01:32.747Z,24.40
2018-06-05T09:04:01.519Z,22.50
2018-06-05T09:06:30.134Z,25.60
2018-06-05T09:08:58.825Z,24.73
2018-06-05T09:11:27.565Z,22.23
2018-06-05T09:13:56.184Z,25.30
2018-06-05T09:16:24.642Z,18.97
2018-06-05T09:18:53.353Z,19.57
2018-06-05T09:21:22.096Z,21.50
2018-06-05T09:23:50.854Z,23.57
2018-06-05T09:26:19.612Z,19.77
2018-06-05T09:28:48.407Z,21.60
2018-06-05T09:31:17.200Z,26.90
2018-06-05T09:33:45.990Z,20.13
2018-06-05T09:36:14.741Z,24.03
2018-06-05T09:38:43.482Z,21.63
2018-06-05T09:41:12.258Z,22.87
2018-06-05T09:43:41.104Z,25.83
2018-06-05T09:46:09.697Z,23.40
2018-06-05T09:48:38.323Z,24.23
2018-06-05T09:51:07.111Z,29.33
2018-06-05T09:53:35.843Z,26.23
2018-06-05T09:56:04.642Z,75.80
2018-06-05T09:58:33.358Z,21.67
2018-06-05T10:01:02.000Z,24.33
2018-06-05T10:03:30.755Z,23.57
2018-06-05T10:05:59.493Z,25.47
2018-06-05T10:08:28.113Z,19.77
2018-06-05T10:10:56.575Z,23.97
2018-06-05T10:13:25.073Z,22.13
2018-06-05T10:15:53.729Z,21.53
2018-06-05T10:18:22.317Z,20.03
2018-06-05T10:20:50.948Z,24.07
2018-06-05T10:23:19.753Z,22.57
2018-06-05T10:25:48.497Z,24.73
2018-06-05T10:28:17.242Z,23.03
2018-06-05T10:30:46.069Z,19.77
2018-06-05T10:33:14.702Z,23.47
2018-06-05T10:35:43.380Z,20.50
2018-06-05T10:38:12.146Z,28.93
2018-06-05T10:40:40.913Z,25.13
2018-06-05T10:43:09.754Z,22.03
2018-06-05T10:45:38.462Z,24.73
2018-06-05T10:48:07.242Z,24.37
2018-06-05T10:50:39.484Z,21.87
2018-06-05T10:53:08.481Z,29.00
2018-06-05T10:55:37.226Z,29.90
2018-06-05T10:58:06.003Z,26.40
2018-06-05T11:00:34.794Z,20.90
2018-06-05T11:03:03.601Z,21.20
2018-06-05T11:05:32.364Z,30.20
2018-06-05T11:08:01.190Z,23.67
2018-06-05T11:10:29.971Z,23.73
2018-06-05T11:12:58.727Z,21.00
2018-06-05T11:15:27.473Z,23.17
2018-06-05T11:17:56.345Z,19.43
2018-06-05T11:20:25.099Z,22.13
2018-06-05T11:22:53.724Z,22.00
2018-06-05T11:25:22.356Z,25.03
2018-06-05T11:27:51.164Z,22.90
2018-06-05T11:30:19.913Z,22.33
2018-06-05T11:32:48.671Z,21.93
2018-06-05T11:35:17.416Z,24.47
2018-06-05T11:37:46.333Z,24.47
2018-06-05T11:40:15.069Z,18.87
2018-06-05T11:42:43.920Z,18.60
2018-06-05T11:45:12.685Z,20.47
2018-06-05T11:47:41.276Z,18.33
2018-06-05T11:50:09.976Z,19.27
2018-06-05T11:52:38.733Z,16.53
2018-06-05T11:55:07.509Z,21.73
2018-06-05T11:57:36.283Z,21.37
2018-06-05T12:00:05.280Z,21.93
2018-06-05T12:02:34.104Z,23.07
2018-06-05T12:05:02.764Z,19.30
2018-06-05T12:07:31.439Z,24.87
2018-06-05T12:10:00.237Z,18.83
2018-06-05T12:12:28.994Z,18.50
2018-06-05T12:14:57.756Z,19.13
2018-06-05T12:17:26.557Z,32.33
2018-06-05T12:19:55.535Z,28.13
2018-06-05T12:22:24.342Z,21.27
2018-06-05T12:24:53.105Z,15.80
2018-06-05T12:27:21.894Z,20.63
2018-06-05T12:29:50.506Z,18.97
2018-06-05T12:32:18.959Z,17.37
2018-06-05T12:34:47.632Z,19.77
2018-06-05T12:37:16.371Z,26.00
2018-06-05T12:39:45.164Z,18.13
2018-06-05T12:42:13.927Z,18.07
2018-06-05T12:44:42.691Z,17.77
2018-06-05T12:47:11.421Z,19.93
2018-06-05T12:49:40.209Z,15.43
2018-06-05T12:52:08.950Z,17.97
2018-06-05T12:54:37.703Z,16.27
2018-06-05T12:57:06.524Z,14.53
2018-06-05T12:59:35.267Z,15.43
2018-06-05T13:02:04.063Z,15.20
2018-06-05T13:04:32.855Z,15.10
2018-06-05T13:07:01.626Z,17.40
2018-06-05T13:09:30.233Z,12.80
2018-06-05T13:11:58.943Z,15.27
2018-06-05T13:14:27.698Z,14.60
2018-06-05T13:16:56.472Z,20.93
2018-06-05T13:19:25.214Z,13.60
2018-06-05T13:21:54.072Z,13.60
2018-06-05T13:24:23.814Z,18.73
2018-06-05T13:26:52.336Z,16.03
2018-06-05T13:29:21.129Z,14.23
2018-06-05T13:31:50.593Z,12.43
2018-06-05T13:34:20.023Z,19.53
2018-06-05T13:36:48.889Z,15.17
2018-06-05T13:39:17.680Z,15.90
2018-06-05T13:41:46.442Z,13.23
2018-06-05T13:44:15.176Z,13.73
2018-06-05T13:46:43.943Z,17.10
2018-06-05T13:49:13.385Z,18.43
2018-06-05T13:51:42.148Z,20.60
2018-06-05T13:54:10.721Z,10.77
2018-06-05T13:56:39.453Z,12.73
2018-06-05T13:59:08.217Z,12.07
2018-06-05T14:01:36.975Z,15.67
2018-06-05T14:04:05.743Z,21.17
2018-06-05T14:06:34.520Z,15.40
2018-06-05T14:09:05.159Z,13.47
2018-06-05T14:11:33.909Z,13.13
2018-06-05T14:14:03.137Z,10.73
2018-06-05T14:16:32.001Z,13.57
2018-06-05T14:19:00.823Z,13.47
2018-06-05T14:21:29.697Z,13.93
2018-06-05T14:23:58.487Z,12.83
2018-06-05T14:26:27.343Z,10.87
2018-06-05T14:28:56.058Z,12.27
2018-06-05T14:31:24.691Z,13.93
2018-06-05T14:33:53.470Z,21.43
2018-06-05T14:36:22.308Z,14.80
2018-06-05T14:38:51.116Z,12.47
2018-06-05T14:41:19.881Z,13.13
2018-06-05T14:43:48.648Z,18.33
2018-06-05T14:46:17.443Z,10.63
2018-06-05T14:48:46.175Z,11.93
2018-06-05T14:51:14.972Z,12.63
2018-06-05T14:53:43.739Z,16.80
2018-06-05T14:56:12.522Z,14.93
2018-06-05T14:58:41.296Z,12.30
2018-06-05T15:01:09.928Z,14.97
2018-06-05T15:03:38.556Z,15.87
2018-06-05T15:06:07.139Z,14.07
2018-06-05T15:08:35.740Z,17.77
2018-06-05T15:11:04.541Z,15.00
2018-06-05T15:13:33.449Z,19.07
2018-06-05T15:16:02.803Z,17.23
2018-06-05T15:18:32.532Z,16.70
2018-06-05T15:21:01.224Z,15.97
2018-06-05T15:23:30.573Z,12.53
2018-06-05T15:25:59.229Z,24.33
2018-06-05T15:28:28.591Z,21.33
2018-06-05T15:30:57.172Z,10.23
2018-06-05T15:33:25.786Z,14.60
2018-06-05T15:35:54.549Z,19.70
2018-06-05T15:38:23.337Z,14.93
2018-06-05T15:40:52.357Z,14.03
2018-06-05T15:43:21.103Z,19.37
2018-06-05T15:45:49.846Z,17.10
2018-06-05T15:48:18.643Z,15.20
2018-06-05T15:50:47.483Z,22.73
2018-06-05T15:53:16.230Z,20.30
2018-06-05T15:55:44.969Z,12.83
2018-06-05T15:58:13.556Z,16.13
2018-06-05T16:00:42.172Z,15.80
2018-06-05T16:03:10.968Z,12.60
2018-06-05T16:05:40.316Z,11.50
2018-06-05T16:08:09.213Z,15.93
2018-06-05T16:10:38.004Z,10.63
2018-06-05T16:13:06.761Z,11.57
2018-06-05T16:15:35.493Z,13.63
2018-06-05T16:18:04.333Z,13.87
2018-06-05T16:20:32.964Z,18.37
2018-06-05T16:23:01.568Z,13.67
2018-06-05T16:25:30.030Z,13.07
2018-06-05T16:28:02.895Z,12.50
2018-06-05T16:30:31.749Z,12.47
2018-06-05T16:33:00.601Z,18.33
2018-06-05T16:35:30.271Z,12.77
2018-06-05T16:40:34.183Z,12.03
2018-06-05T16:43:03.009Z,15.63
2018-06-05T16:45:31.805Z,20.77
2018-06-05T16:48:00.482Z,14.17
2018-06-05T16:50:29.275Z,11.50
2018-06-05T16:52:58.123Z,12.60
2018-06-05T16:55:26.859Z,14.37
2018-06-05T16:57:55.446Z,14.20
2018-06-05T17:00:24.129Z,16.30
2018-06-05T17:02:52.902Z,11.70
2018-06-05T17:05:21.714Z,11.07
2018-06-05T17:07:51.326Z,11.20
2018-06-05T17:10:19.968Z,13.97
2018-06-05T17:12:49.659Z,12.47
2018-06-05T17:15:18.518Z,10.67
2018-06-05T17:17:47.292Z,13.50
2018-06-05T17:20:15.921Z,9.83
2018-06-05T17:22:44.608Z,15.60
2018-06-05T17:25:13.308Z,16.83
2018-06-05T17:27:42.080Z,12.60
2018-06-05T17:30:10.912Z,22.07
2018-06-05T17:32:39.702Z,17.53
2018-06-05T17:35:08.472Z,7.67
2018-06-05T17:37:37.198Z,12.33
2018-06-05T17:40:06.018Z,18.80
2018-06-05T17:42:34.900Z,11.87
2018-06-05T17:45:03.705Z,13.47
2018-06-05T17:47:32.441Z,5.67
2018-06-05T17:50:01.189Z,7.40
2018-06-05T17:52:29.930Z,10.40
2018-06-05T17:54:58.515Z,6.40
2018-06-05T17:57:27.134Z,4.43
2018-06-05T17:59:55.875Z,10.07
2018-06-05T18:02:24.678Z,9.20
2018-06-05T18:04:53.459Z,6.33
2018-06-05T18:07:22.170Z,8.90
2018-06-05T18:09:50.888Z,5.50
2018-06-05T18:12:19.728Z,7.60
2018-06-05T18:14:48.397Z,6.03
2018-06-05T18:17:17.170Z,7.70
2018-06-05T18:19:46.030Z,4.67
2018-06-05T18:22:15.407Z,4.40
2018-06-05T18:24:44.173Z,3.20
2018-06-05T18:27:12.936Z,6.00
2018-06-05T18:29:41.708Z,3.60
2018-06-05T18:32:10.462Z,2.70
2018-06-05T18:34:39.190Z,3.80
2018-06-05T18:37:08.014Z,3.73
2018-06-05T18:39:36.857Z,3.40
2018-06-05T18:42:05.745Z,5.27
2018-06-05T18:44:34.486Z,16.40
2018-06-05T18:47:03.260Z,8.20
2018-06-05T18:49:32.693Z,6.40
2018-06-05T18:52:01.256Z,5.20
2018-06-05T18:54:29.889Z,13.43
2018-06-05T18:56:58.752Z,5.90
2018-06-05T18:59:27.471Z,10.43
2018-06-05T19:01:56.220Z,3.23
2018-06-05T19:04:31.430Z,3.03
2018-06-05T19:07:00.075Z,2.43
2018-06-05T19:09:28.845Z,3.40
2018-06-05T19:11:57.579Z,6.00
2018-06-05T19:14:26.327Z,6.73
2018-06-05T19:16:55.112Z,10.50
2018-06-05T19:19:23.835Z,2.90
2018-06-05T19:21:52.602Z,4.20
2018-06-05T19:24:21.394Z,2.87
2018-06-05T19:26:49.916Z,4.07
2018-06-05T19:29:18.558Z,4.03
2018-06-05T19:31:47.333Z,3.73
2018-06-05T19:34:16.247Z,1.97
2018-06-05T19:36:45.066Z,2.30
2018-06-05T19:39:13.812Z,2.43
2018-06-05T19:41:42.558Z,3.03
2018-06-05T19:44:11.388Z,5.20
2018-06-05T19:46:40.170Z,5.97
2018-06-05T19:49:08.946Z,3.57
2018-06-05T19:51:37.506Z,3.23
2018-06-05T19:54:06.160Z,2.20
2018-06-05T19:56:34.991Z,5.57
2018-06-05T19:59:03.828Z,4.43
2018-06-05T20:01:32.685Z,5.63
2018-06-05T20:04:01.284Z,4.70
2018-06-05T20:06:30.026Z,2.93
2018-06-05T20:08:58.834Z,6.97
2018-06-05T20:11:27.562Z,5.97
2018-06-05T20:13:56.585Z,3.93
2018-06-05T20:16:25.312Z,4.00
2018-06-05T20:18:54.042Z,3.47
2018-06-05T20:21:22.774Z,2.30
2018-06-05T20:23:51.716Z,2.17
2018-06-05T20:26:20.546Z,3.40
2018-06-05T20:28:49.398Z,3.83
2018-06-05T20:31:18.215Z,3.50
2018-06-05T20:33:47.001Z,3.07
2018-06-05T20:36:15.806Z,1.70
2018-06-05T20:38:44.519Z,3.63
2018-06-05T20:41:13.271Z,3.83
2018-06-05T20:43:42.081Z,5.30
2018-06-05T20:46:10.845Z,2.20
2018-06-05T20:48:39.668Z,2.70
2018-06-05T20:51:08.492Z,2.00
2018-06-05T20:53:37.148Z,3.07
2018-06-05T20:56:05.769Z,2.87
2018-06-05T20:58:34.428Z,2.57
2018-06-05T21:01:03.061Z,3.63
2018-06-05T21:03:31.812Z,3.97
2018-06-05T21:06:00.684Z,3.63
2018-06-05T21:08:30.499Z,4.27
2018-06-05T21:10:59.445Z,2.53
2018-06-05T21:13:28.296Z,5.93
2018-06-05T21:15:57.081Z,6.83
2018-06-05T21:18:25.799Z,4.00
2018-06-05T21:20:55.458Z,3.47
2018-06-05T21:23:24.296Z,4.47
2018-06-05T21:25:52.995Z,5.43
2018-06-05T21:28:21.904Z,6.67
2018-06-05T21:30:50.643Z,2.70
2018-06-05T21:33:19.386Z,3.67
2018-06-05T21:35:48.110Z,2.27
2018-06-05T21:38:16.665Z,4.37
2018-06-05T21:40:45.343Z,6.73
2018-06-05T21:43:14.129Z,4.87
2018-06-05T21:45:42.957Z,4.17
2018-06-05T21:48:11.692Z,6.63
2018-06-05T21:50:40.425Z,5.50
2018-06-05T21:53:09.127Z,10.03
2018-06-05T21:55:37.576Z,3.10
2018-06-05T21:58:06.242Z,7.10
2018-06-05T22:00:35.004Z,7.27
2018-06-05T22:03:04.064Z,4.13
2018-06-05T22:05:32.806Z,3.33
2018-06-05T22:08:01.618Z,4.63
2018-06-05T22:10:30.437Z,5.50
2018-06-05T22:12:59.172Z,3.60
2018-06-05T22:15:27.926Z,6.13
2018-06-05T22:17:56.666Z,4.50
2018-06-05T22:20:25.408Z,3.77
2018-06-05T22:22:54.146Z,4.23
2018-06-05T22:25:23.013Z,4.40
2018-06-05T22:27:51.968Z,5.87
2018-06-05T22:30:20.760Z,4.97
2018-06-05T22:32:49.525Z,4.73
2018-06-05T22:35:18.100Z,3.37
2018-06-05T22:37:46.780Z,3.10
2018-06-05T22:40:15.471Z,2.33
2018-06-05T22:42:44.090Z,3.30
2018-06-05T22:45:12.810Z,2.83
2018-06-05T22:47:41.575Z,3.70
2018-06-05T22:50:10.301Z,6.43
2018-06-05T22:52:39.073Z,5.30
2018-06-05T22:55:07.919Z,3.40
2018-06-05T22:57:36.717Z,2.93
2018-06-05T23:00:05.492Z,4.03
2018-06-05T23:02:34.028Z,2.23
2018-06-05T23:05:02.768Z,4.00
2018-06-05T23:07:31.556Z,2.90
2018-06-05T23:10:00.444Z,3.17
2018-06-05T23:12:29.235Z,3.47
2018-06-05T23:14:58.023Z,3.47
2018-06-05T23:17:26.803Z,5.83
2018-06-05T23:19:56.231Z,5.93
2018-06-05T23:22:26.000Z,2.60
2018-06-05T23:25:00.600Z,4.13
2018-06-05T23:27:29.368Z,3.73
2018-06-05T23:29:58.210Z,2.23
2018-06-05T23:32:26.961Z,2.57
2018-06-05T23:34:55.916Z,3.90
2018-06-05T23:37:24.812Z,2.77
2018-06-05T23:39:53.694Z,5.67
2018-06-05T23:42:22.503Z,1.90
2018-06-05T23:44:51.231Z,2.13
2018-06-05T23:47:20.768Z,3.17
2018-06-05T23:49:49.374Z,3.60
2018-06-05T23:52:17.810Z,2.20
2018-06-05T23:54:46.542Z,2.07
2018-06-05T23:57:15.313Z,2.97
2018-06-05T23:59:44.005Z,5.23
